Flight Track Log - Related Links

Times and Time Zones

All times are in EST time to prevent confusion due to time zone crossing. See the DNV5355 flight status page for this flight to view local times or setup timezone preferences in your user account.

Time Position Orientation Groundspeed Altitude Reporting Facility
EST Latitude Longitude Course Direction KTS MPH feet Rate Location/Type
Fri 04:44:00 PM 42.7664 37.2486 21° North  Level Estimated
Fri 04:45:00 PM 42.8772 37.3070 21° North  Level Estimated
Fri 04:46:00 PM 42.9879 37.3656 21° North  Level Estimated
Fri 04:47:00 PM 43.0987 37.4244 21° North  Level Estimated
Fri 04:48:00 PM 43.2094 37.4835 21° North  Level Estimated
Fri 04:49:00 PM 43.3200 37.5427 21° North  Level Estimated
Fri 04:50:00 PM 43.4307 37.6022 21° North  Level Estimated
Fri 04:51:00 PM 43.5413 37.6619 21° North  Level Estimated
Fri 04:52:00 PM 43.6519 37.7218 21° North  Level Estimated
Fri 04:53:00 PM 43.7624 37.7819 21° North  Level Estimated
Fri 04:54:00 PM 43.8729 37.8423 21° North  Level Estimated
Fri 04:55:00 PM 43.9834 37.9028 22° Northeast  Level Estimated
Fri 04:56:00 PM 44.0939 37.9636 22° Northeast  Level Estimated
Fri 04:57:00 PM 44.2043 38.0247 22° Northeast  Level Estimated
Fri 04:58:00 PM 44.3147 38.0859 22° Northeast  Level Estimated
Fri 04:59:00 PM 44.4250 38.1474 22° Northeast  Level Estimated
Fri 05:00:00 PM 44.5354 38.2091 22° Northeast  Level Estimated
Fri 05:01:00 PM 44.6456 38.2711 22° Northeast  Level Estimated
Fri 05:02:00 PM 44.7559 38.3333 22° Northeast  Level Estimated
Fri 05:03:00 PM 44.8661 38.3957 22° Northeast  Level Estimated
Fri 05:04:00 PM 44.9763 38.4584 22° Northeast  Level Estimated
Fri 05:05:00 PM 45.0865 38.5213 22° Northeast  Level Estimated
Fri 05:06:00 PM 45.1966 38.5844 22° Northeast  Level Estimated
Fri 05:07:00 PM 45.3067 38.6478 22° Northeast  Level Estimated
Fri 05:08:00 PM 45.4167 38.7115 22° Northeast  Level Estimated
Fri 05:09:00 PM 45.5267 38.7754 22° Northeast  Level Estimated
Fri 05:10:00 PM 45.6367 38.8395 22° Northeast  Level Estimated
Fri 05:11:00 PM 45.7466 38.9039 22° Northeast  Level Estimated
Fri 05:12:00 PM 45.8565 38.9686 22° Northeast  Level Estimated
Fri 05:13:00 PM 45.9664 39.0335 22° Northeast  Level Estimated
Fri 05:14:00 PM 46.0762 39.0986 22° Northeast  Level Estimated
Fri 05:15:00 PM 46.1860 39.1640 22° Northeast  Level Estimated
Fri 05:16:00 PM 46.2958 39.2297 22° Northeast  Level Estimated
Fri 05:17:00 PM 46.4055 39.2957 23° Northeast  Level Estimated
Fri 05:18:00 PM 46.5152 39.3619 23° Northeast  Level Estimated
Fri 05:19:00 PM 46.6248 39.4284 23° Northeast  Level Estimated
Fri 05:20:00 PM 46.7344 39.4951 23° Northeast  Level Estimated
Fri 05:21:00 PM 46.8440 39.5621 23° Northeast  Level Estimated
Fri 05:22:00 PM 46.9535 39.6294 23° Northeast  Level Estimated
Fri 05:23:00 PM 47.0630 39.6970 23° Northeast  Level Estimated
Fri 05:24:00 PM 47.1724 39.7649 23° Northeast  Level Estimated
Fri 05:25:00 PM 47.2583 39.8183 23° Northeast  Level Estimated
Fri 05:26:00 PM 47.2583 39.8183 North  Level Estimated
Fri 05:27:00 PM 47.2583 39.8183 North  Level Estimated
Fri 05:28:00 PM 47.2583 39.8183 North  Level Estimated
Fri 05:29:00 PM 47.2583 39.8183 North  Level Estimated
Fri 05:30:00 PM 47.2583 39.8183 North  Level Estimated
Fri 05:31:00 PM 47.2583 39.8183 North  Level Estimated
Fri 05:32:00 PM 47.2583 39.8183 North  Level Estimated
Fri 05:33:00 PM 47.2583 39.8183 North  Level Estimated
Fri 05:34:00 PM 47.2583 39.8183 North  Level Estimated
Fri 05:35:00 PM 47.2583 39.8183 North  Level Estimated
Fri 05:36:00 PM 47.2583 39.8183 North  Level Estimated
Fri 05:37:00 PM 47.2583 39.8183 North  Level Estimated
Fri 05:38:00 PM 47.2583 39.8183 North  Level Estimated
Fri 05:39:00 PM 47.2583 39.8183 North  Level Estimated
Fri 05:40:00 PM 47.2583 39.8183 North  Level Estimated
Fri 05:41:00 PM 47.2583 39.8183 North  Level Estimated
Fri 05:42:00 PM 47.2583 39.8183 North  Level Estimated
Fri 05:43:00 PM 47.2583 39.8183 North  Level Estimated
Fri 05:44:00 PM 47.2583 39.8183 North  Level Estimated
Fri 05:45:00 PM 47.2583 39.8183 North  Level Estimated
Fri 05:46:00 PM 47.2583 39.8183 North  Level Estimated
Fri 05:47:00 PM 47.2583 39.8183 North  Level Estimated
Fri 05:48:00 PM 47.2583 39.8183 North  Level Estimated
Fri 05:49:00 PM 47.2583 39.8183 North  Level Estimated
Fri 05:50:00 PM 47.2583 39.8183 North  Level Estimated
Fri 05:51:00 PM 47.2583 39.8183 North  Level Estimated
Fri 05:52:00 PM 47.2583 39.8183 North  Level Estimated
Fri 05:53:00 PM 47.2583 39.8183 North  Level Estimated
Fri 05:54:00 PM 47.2583 39.8183 North  Level Estimated
Fri 05:55:00 PM 47.2583 39.8183 North  Level Estimated
Fri 05:56:00 PM 47.2583 39.8183 North  Level Estimated
Fri 05:57:00 PM 47.2583 39.8183 North  Level Estimated
Fri 05:58:00 PM 47.2583 39.8183 North  Level Estimated
Fri 05:59:00 PM 47.2583 39.8183 North  Level Estimated
Fri 06:00:00 PM 47.2583 39.8183 North  Level Estimated
Fri 06:01:00 PM 47.2583 39.8183 North  Level Estimated
Fri 06:02:00 PM 47.2583 39.8183 North  Level Estimated
Fri 06:03:00 PM 47.2583 39.8183 North  Level Estimated
Fri 06:04:00 PM 47.2583 39.8183 North  Level Estimated
Fri 06:05:00 PM 47.2583 39.8183 North  Level Estimated
Fri 06:06:00 PM 47.2583 39.8183 North  Level Estimated
Fri 06:07:00 PM 47.2583 39.8183 North  Level Estimated
Fri 06:08:00 PM 47.2583 39.8183 North  Level Estimated
Fri 06:09:00 PM 47.2583 39.8183 North  Level Estimated
Fri 06:10:00 PM 47.2583 39.8183 North  Level Estimated
Fri 06:11:00 PM 47.2583 39.8183 North  Level Estimated
Fri 06:12:00 PM 47.2583 39.8183 North  Level Estimated
Fri 06:13:00 PM 47.2583 39.8183 North  Level Estimated
Fri 06:14:00 PM 47.2583 39.8183 North  Level Estimated
Fri 06:15:00 PM 47.2583 39.8183 North  Level Estimated
Fri 06:16:00 PM 47.2583 39.8183 North  Level Estimated
Fri 06:17:00 PM 47.2583 39.8183 North  Level Estimated
Fri 06:18:00 PM 47.2583 39.8183 North  Level Estimated
Fri 06:19:00 PM 47.2583 39.8183 North  Level Estimated
Fri 06:20:00 PM 47.2583 39.8183 North  Level Estimated
Fri 06:21:00 PM 47.2583 39.8183 North  Level Estimated

Login

Don't have an account? Register now (free) for customized features, flight alerts, and more!